Orion, Arkansas
Current Conditions -  °F | °C
As of 2:53 PM on Saturday 25 Oct 2014 (Local Time) from KLIT Reporting Station
Clear Clear  
Wind Chill: 86°   Ceiling: Unl
Heat Index: 86°   Visibility: 10mi
Dew Point: 61°   Wind: 7mph
Humidity: 43%   Direction: 230°SW
Pressure: 30.03"   Gusts: NA
Location:  34.4462°N, 92.1621°W
Report Text: KLIT 251953Z 23006KT 10SM CLR 30/16 A3003 RMK AO2 SLP170 T03000161
Loading
Personal Weather Stations






























Interactive Weather Map
Tropical Storm Tracking
New forecast layout! Learn more

10-Day Weather Forecast

Advertisements
Track Severe Weather on mobile